createdAt,value
2018-08-18T00:00:49.445Z,6.67
2018-08-18T00:03:24.396Z,8.88
2018-08-18T00:05:59.222Z,8.93
2018-08-18T00:08:58.537Z,8.13
2018-08-18T00:11:34.431Z,6.25
2018-08-18T00:14:09.203Z,4.85
2018-08-18T00:16:44.013Z,7.40
2018-08-18T00:19:21.724Z,6.87
2018-08-18T00:21:57.012Z,5.47
2018-08-18T00:24:31.752Z,5.62
2018-08-18T00:27:06.636Z,6.53
2018-08-18T00:29:41.418Z,6.58
2018-08-18T00:32:16.408Z,6.12
2018-08-18T00:34:53.829Z,4.45
2018-08-18T00:37:29.643Z,8.23
2018-08-18T00:40:06.180Z,9.53
2018-08-18T00:42:41.552Z,7.15
2018-08-18T00:45:16.355Z,4.95
2018-08-18T00:47:51.361Z,7.43
2018-08-18T00:50:36.749Z,8.05
2018-08-18T00:53:14.286Z,7.33
2018-08-18T00:55:50.059Z,7.65
2018-08-18T00:58:29.407Z,10.85
2018-08-18T01:01:05.947Z,10.20
2018-08-18T01:03:45.266Z,8.53
2018-08-18T01:06:22.100Z,7.45
2018-08-18T01:08:58.006Z,7.60
2018-08-18T01:11:32.361Z,10.30
2018-08-18T01:14:13.494Z,10.97
2018-08-18T01:16:52.639Z,9.78
2018-08-18T01:19:27.410Z,8.90
2018-08-18T01:22:01.685Z,4.90
2018-08-18T01:24:36.484Z,8.93
2018-08-18T01:27:11.257Z,10.48
2018-08-18T01:29:49.768Z,4.23
2018-08-18T01:32:24.007Z,7.72
2018-08-18T01:34:59.221Z,6.37
2018-08-18T01:37:34.756Z,9.60
2018-08-18T01:40:08.987Z,6.17
2018-08-18T01:42:44.796Z,8.80
2018-08-18T01:45:19.058Z,12.33
2018-08-18T01:47:53.819Z,8.35
2018-08-18T01:50:28.063Z,8.70
2018-08-18T01:53:03.362Z,6.05
2018-08-18T01:55:38.594Z,7.17
2018-08-18T01:58:12.838Z,5.63
2018-08-18T02:00:47.075Z,8.28
2018-08-18T02:03:21.876Z,8.00
2018-08-18T02:05:56.115Z,7.60
2018-08-18T02:08:30.411Z,5.37
2018-08-18T02:11:04.655Z,6.47
2018-08-18T02:13:39.406Z,6.70
2018-08-18T02:16:13.581Z,11.55
2018-08-18T02:18:47.803Z,8.43
2018-08-18T02:21:31.828Z,5.85
2018-08-18T02:24:06.824Z,6.72
2018-08-18T02:26:41.802Z,5.30
2018-08-18T02:29:16.565Z,8.23
2018-08-18T02:31:51.323Z,7.12
2018-08-18T02:34:26.085Z,10.45
2018-08-18T02:37:00.300Z,5.72
2018-08-18T02:39:34.613Z,8.90
2018-08-18T02:42:08.936Z,5.10
2018-08-18T02:44:43.519Z,9.60
2018-08-18T02:47:18.715Z,6.63
2018-08-18T02:49:54.485Z,10.07
2018-08-18T02:52:32.189Z,7.40
2018-08-18T02:55:09.296Z,10.73
2018-08-18T02:57:45.048Z,7.33
2018-08-18T03:00:24.743Z,6.80
2018-08-18T03:02:58.951Z,6.67
2018-08-18T03:05:33.207Z,6.27
2018-08-18T03:08:07.424Z,7.80
2018-08-18T03:10:41.699Z,6.97
2018-08-18T03:13:16.920Z,5.40
2018-08-18T03:15:54.088Z,6.03
2018-08-18T03:18:36.679Z,13.23
2018-08-18T03:21:10.860Z,12.33
2018-08-18T03:23:56.497Z,5.60
2018-08-18T03:26:35.695Z,9.93
2018-08-18T03:29:10.835Z,5.63
2018-08-18T03:31:46.727Z,7.47
2018-08-18T03:34:22.456Z,6.83
2018-08-18T03:37:05.904Z,5.27
2018-08-18T03:39:40.123Z,6.37
2018-08-18T03:42:14.373Z,8.40
2018-08-18T03:44:53.796Z,8.57
2018-08-18T03:47:28.106Z,7.97
2018-08-18T03:50:03.300Z,10.17
2018-08-18T03:52:37.478Z,11.67
2018-08-18T03:55:18.888Z,9.50
2018-08-18T03:57:53.218Z,7.47
2018-08-18T04:00:27.423Z,9.70
2018-08-18T04:03:12.904Z,10.67
2018-08-18T04:05:59.472Z,9.03
2018-08-18T04:08:33.719Z,8.57
2018-08-18T04:11:14.856Z,11.40
2018-08-18T04:13:49.165Z,12.27
2018-08-18T04:16:23.363Z,6.97
2018-08-18T04:19:01.697Z,8.60
2018-08-18T04:21:36.100Z,8.93
2018-08-18T04:24:10.365Z,7.83
2018-08-18T04:26:47.067Z,8.70
2018-08-18T04:29:21.872Z,5.83
2018-08-18T04:31:56.141Z,8.70
2018-08-18T04:34:30.405Z,5.13
2018-08-18T04:37:04.639Z,7.17
2018-08-18T04:39:38.871Z,8.40
2018-08-18T04:42:13.094Z,11.90
2018-08-18T04:44:47.853Z,9.88
2018-08-18T04:47:30.277Z,10.43
2018-08-18T04:50:04.492Z,7.10
2018-08-18T04:52:38.760Z,7.40
2018-08-18T04:55:14.970Z,6.35
2018-08-18T04:57:50.143Z,5.45
2018-08-18T05:00:27.552Z,8.43
2018-08-18T05:03:04.361Z,7.67
2018-08-18T05:05:39.144Z,6.55
2018-08-18T05:08:13.873Z,9.05
2018-08-18T05:10:49.696Z,9.93
2018-08-18T05:13:24.584Z,5.25
2018-08-18T05:16:00.368Z,10.05
2018-08-18T05:18:37.147Z,7.05
2018-08-18T05:21:11.939Z,8.78
2018-08-18T05:23:54.033Z,5.03
2018-08-18T05:26:30.867Z,8.55
2018-08-18T05:29:05.947Z,5.97
2018-08-18T05:31:40.763Z,8.70
2018-08-18T05:34:15.557Z,8.98
2018-08-18T05:36:50.297Z,9.30
2018-08-18T05:39:25.102Z,8.48
2018-08-18T05:42:00.069Z,6.25
2018-08-18T05:44:35.124Z,9.98
2018-08-18T05:47:10.271Z,8.80
2018-08-18T05:49:45.060Z,8.15
2018-08-18T05:52:19.836Z,7.00
2018-08-18T05:54:55.435Z,7.20
2018-08-18T05:57:30.311Z,6.17
2018-08-18T06:00:07.952Z,7.62
2018-08-18T06:02:46.913Z,5.90
2018-08-18T06:05:25.607Z,7.33
2018-08-18T06:08:02.099Z,5.08
2018-08-18T06:10:36.928Z,5.40
2018-08-18T06:13:16.912Z,4.97
2018-08-18T06:16:06.508Z,4.72
2018-08-18T06:18:41.793Z,2.95
2018-08-18T06:21:16.620Z,4.10
2018-08-18T06:23:51.393Z,4.70
2018-08-18T06:26:27.109Z,2.40
2018-08-18T06:29:02.882Z,2.42
2018-08-18T06:32:08.800Z,3.15
2018-08-18T06:34:43.935Z,2.93
2018-08-18T06:37:18.824Z,3.43
2018-08-18T06:39:57.080Z,2.90
2018-08-18T06:42:37.623Z,4.50
2018-08-18T06:45:14.259Z,3.67
2018-08-18T06:47:49.786Z,5.13
2018-08-18T06:50:28.420Z,3.53
2018-08-18T06:53:02.896Z,1.90
2018-08-18T06:55:37.452Z,3.57
2018-08-18T06:58:12.951Z,2.87
2018-08-18T07:00:47.430Z,2.43
2018-08-18T07:03:46.786Z,3.57
2018-08-18T07:06:23.239Z,2.03
2018-08-18T07:08:57.761Z,2.90
2018-08-18T07:11:33.199Z,4.77
2018-08-18T07:14:07.769Z,3.17
2018-08-18T07:16:42.274Z,2.60
2018-08-18T07:19:16.776Z,2.63
2018-08-18T07:21:52.390Z,1.77
2018-08-18T07:24:26.897Z,4.57
2018-08-18T07:27:01.372Z,1.87
2018-08-18T07:29:51.260Z,3.47
2018-08-18T07:32:25.780Z,8.27
2018-08-18T07:35:00.272Z,1.80
2018-08-18T07:37:35.835Z,5.20
2018-08-18T07:40:10.537Z,4.27
2018-08-18T07:42:49.556Z,1.20
2018-08-18T07:45:25.037Z,3.70
2018-08-18T07:47:59.516Z,2.23
2018-08-18T07:50:35.090Z,2.77
2018-08-18T07:53:10.616Z,2.70
2018-08-18T07:55:45.431Z,1.87
2018-08-18T07:58:22.160Z,2.97
2018-08-18T08:00:59.315Z,1.40
2018-08-18T08:03:34.772Z,2.70
2018-08-18T08:06:09.727Z,2.33
2018-08-18T08:08:49.651Z,1.40
2018-08-18T08:11:29.575Z,1.03
2018-08-18T08:14:05.108Z,1.73
2018-08-18T08:16:39.597Z,0.70
2018-08-18T08:19:14.046Z,1.07
2018-08-18T08:21:48.588Z,1.70
2018-08-18T08:24:24.148Z,4.27
2018-08-18T08:26:59.628Z,2.77
2018-08-18T08:29:39.072Z,2.97
2018-08-18T08:32:13.716Z,1.70
2018-08-18T08:34:49.248Z,2.20
2018-08-18T08:37:23.758Z,1.07
2018-08-18T08:39:59.021Z,2.70
2018-08-18T08:42:34.538Z,4.77
2018-08-18T08:45:11.542Z,1.13
2018-08-18T08:47:47.847Z,2.20
2018-08-18T08:50:25.011Z,1.73
2018-08-18T08:53:00.505Z,6.10
2018-08-18T08:55:34.964Z,3.13
2018-08-18T08:58:09.482Z,2.07
2018-08-18T09:00:43.988Z,4.87
2018-08-18T09:03:18.465Z,3.57
2018-08-18T09:05:52.972Z,2.53
2018-08-18T09:08:27.455Z,4.07
2018-08-18T09:11:01.943Z,5.23
2018-08-18T09:13:37.604Z,2.03
2018-08-18T09:16:13.120Z,3.53
2018-08-18T09:18:47.667Z,4.17
2018-08-18T09:21:23.171Z,3.03
2018-08-18T09:23:57.649Z,7.40
2018-08-18T09:26:32.412Z,3.13
2018-08-18T09:29:07.140Z,4.33
2018-08-18T09:31:43.605Z,4.57
2018-08-18T09:34:19.488Z,3.13
2018-08-18T09:36:54.018Z,4.33
2018-08-18T09:39:33.724Z,2.73
2018-08-18T09:42:10.262Z,3.23
2018-08-18T09:44:49.053Z,5.30
2018-08-18T09:47:23.584Z,5.83
2018-08-18T09:49:58.072Z,3.73
2018-08-18T09:52:33.718Z,4.07
2018-08-18T09:55:08.238Z,4.00
2018-08-18T09:57:42.744Z,5.23
2018-08-18T10:00:17.317Z,3.57
2018-08-18T10:02:51.821Z,3.13
2018-08-18T10:05:26.352Z,3.13
2018-08-18T10:08:06.361Z,2.77
2018-08-18T10:10:48.337Z,7.07
2018-08-18T10:13:22.820Z,4.37
2018-08-18T10:15:57.414Z,1.87
2018-08-18T10:18:38.239Z,3.53
2018-08-18T10:21:12.701Z,4.53
2018-08-18T10:23:48.975Z,3.50
2018-08-18T10:26:23.459Z,3.93
2018-08-18T10:29:13.114Z,4.73
2018-08-18T10:32:02.826Z,3.73
2018-08-18T10:34:37.312Z,6.07
2018-08-18T10:37:11.796Z,5.07
2018-08-18T10:39:47.384Z,1.87
2018-08-18T10:42:27.801Z,4.33
2018-08-18T10:45:17.189Z,3.33
2018-08-18T10:48:08.404Z,1.93
2018-08-18T10:51:06.987Z,3.30
2018-08-18T10:54:18.491Z,3.53
2018-08-18T10:56:58.228Z,2.87
2018-08-18T10:59:50.737Z,2.47
2018-08-18T11:02:34.091Z,1.47
2018-08-18T11:05:09.194Z,2.47
2018-08-18T11:11:53.274Z,1.70
2018-08-18T11:14:50.349Z,3.20
2018-08-18T11:17:30.197Z,4.07
2018-08-18T11:20:22.611Z,2.03
2018-08-18T11:23:03.489Z,6.30
2018-08-18T11:25:46.892Z,1.67
2018-08-18T11:28:21.977Z,2.50
2018-08-18T11:31:05.476Z,2.23
2018-08-18T11:33:58.782Z,4.50
2018-08-18T11:36:33.309Z,4.50
2018-08-18T11:39:08.688Z,4.00
2018-08-18T11:41:43.501Z,3.37
2018-08-18T11:44:24.483Z,3.00
2018-08-18T11:47:00.079Z,3.67
2018-08-18T11:49:34.490Z,3.27
2018-08-18T11:52:09.984Z,1.67
2018-08-18T11:54:44.443Z,1.87
2018-08-18T11:57:19.215Z,1.90
2018-08-18T11:59:53.658Z,1.43
2018-08-18T12:02:28.105Z,3.83
2018-08-18T12:05:03.620Z,2.07
2018-08-18T12:07:38.052Z,2.13
2018-08-18T12:10:12.548Z,1.87
2018-08-18T12:12:46.943Z,2.57
2018-08-18T12:15:22.390Z,2.70
2018-08-18T12:17:58.483Z,1.30
2018-08-18T12:20:32.923Z,2.13
2018-08-18T12:23:07.610Z,3.47
2018-08-18T12:25:42.078Z,2.00
2018-08-18T12:28:16.485Z,2.37
2018-08-18T12:30:50.933Z,1.93
2018-08-18T12:33:25.407Z,2.40
2018-08-18T12:36:00.036Z,2.17
2018-08-18T12:38:34.897Z,3.17
2018-08-18T12:41:09.375Z,2.60
2018-08-18T12:43:51.943Z,5.97
2018-08-18T12:46:35.380Z,3.93
2018-08-18T12:49:11.120Z,3.77
2018-08-18T12:51:46.123Z,4.58
2018-08-18T12:54:20.516Z,3.73
2018-08-18T12:56:55.279Z,3.45
2018-08-18T12:59:29.965Z,3.58
2018-08-18T13:02:04.735Z,2.33
2018-08-18T13:04:39.444Z,5.55
2018-08-18T13:07:15.176Z,3.08
2018-08-18T13:09:58.604Z,4.87
2018-08-18T13:12:34.343Z,4.83
2018-08-18T13:15:09.107Z,4.83
2018-08-18T13:17:44.912Z,2.37
2018-08-18T13:20:26.844Z,3.10
2018-08-18T13:23:01.588Z,4.53
2018-08-18T13:25:36.041Z,2.10
2018-08-18T13:28:11.848Z,3.10
2018-08-18T13:30:46.312Z,1.70
2018-08-18T13:33:20.844Z,2.80
2018-08-18T13:35:55.349Z,3.80
2018-08-18T13:38:32.227Z,4.83
2018-08-18T13:41:06.633Z,4.23
2018-08-18T13:43:48.238Z,4.80
2018-08-18T13:46:33.861Z,2.95
2018-08-18T13:49:08.662Z,1.67
2018-08-18T13:51:43.424Z,5.37
2018-08-18T13:54:19.227Z,4.00
2018-08-18T13:56:54.688Z,3.53
2018-08-18T13:59:46.268Z,3.65
2018-08-18T14:02:20.728Z,3.70
2018-08-18T14:04:55.116Z,2.00
2018-08-18T14:07:30.191Z,3.42
2018-08-18T14:10:05.247Z,6.42
2018-08-18T14:12:41.028Z,2.75
2018-08-18T14:15:16.776Z,4.67
2018-08-18T14:18:04.478Z,3.45
2018-08-18T14:20:52.985Z,3.75
2018-08-18T14:23:27.875Z,5.80
2018-08-18T14:26:02.616Z,2.00
2018-08-18T14:28:37.356Z,5.70
2018-08-18T14:31:12.057Z,3.12
2018-08-18T14:33:46.864Z,2.60
2018-08-18T14:36:23.948Z,5.03
2018-08-18T14:38:59.772Z,4.53
2018-08-18T14:41:39.264Z,4.45
2018-08-18T14:44:14.005Z,6.58
2018-08-18T14:46:49.818Z,2.58
2018-08-18T14:49:24.657Z,6.80
2018-08-18T14:51:59.548Z,4.15
2018-08-18T14:54:34.455Z,4.70
2018-08-18T14:57:09.272Z,3.58
2018-08-18T14:59:43.991Z,2.58
2018-08-18T15:02:18.700Z,3.62
2018-08-18T15:04:53.476Z,4.15
2018-08-18T15:07:29.927Z,3.77
2018-08-18T15:10:04.781Z,5.53
2018-08-18T15:12:39.467Z,3.12
2018-08-18T15:15:14.394Z,2.55
2018-08-18T15:17:50.104Z,1.00
2018-08-18T15:20:24.850Z,2.85
2018-08-18T15:23:00.077Z,3.05
2018-08-18T15:25:35.802Z,3.45
2018-08-18T15:28:12.628Z,4.50
2018-08-18T15:30:51.690Z,2.35
2018-08-18T15:33:27.728Z,3.45
2018-08-18T15:36:02.503Z,2.45
2018-08-18T15:38:43.969Z,1.67
2018-08-18T15:41:18.652Z,1.80
2018-08-18T15:43:53.688Z,4.60
2018-08-18T15:46:28.396Z,2.40
2018-08-18T15:49:03.762Z,3.70
2018-08-18T15:51:38.445Z,1.72
2018-08-18T15:54:13.241Z,2.70
2018-08-18T15:56:48.087Z,2.85
2018-08-18T15:59:22.799Z,2.10
2018-08-18T16:01:57.487Z,3.50
2018-08-18T16:04:32.237Z,2.67
2018-08-18T16:07:06.929Z,2.80
2018-08-18T16:09:42.680Z,1.65
2018-08-18T16:12:17.763Z,5.40
2018-08-18T16:14:52.499Z,3.10
2018-08-18T16:17:27.171Z,2.60
2018-08-18T16:20:02.004Z,2.35
2018-08-18T16:22:36.767Z,3.98
2018-08-18T16:25:22.332Z,1.27
2018-08-18T16:27:57.068Z,3.27
2018-08-18T16:30:31.824Z,4.97
2018-08-18T16:33:19.042Z,4.37
2018-08-18T16:35:54.148Z,4.95
2018-08-18T16:38:28.863Z,5.70
2018-08-18T16:41:03.708Z,5.87
2018-08-18T16:43:38.762Z,3.22
2018-08-18T16:46:26.015Z,2.10
2018-08-18T16:49:00.732Z,2.62
2018-08-18T16:51:35.470Z,5.60
2018-08-18T16:54:20.405Z,5.17
2018-08-18T16:56:55.136Z,4.03
2018-08-18T16:59:30.468Z,3.52
2018-08-18T17:02:06.322Z,3.95
2018-08-18T17:04:41.060Z,3.22
2018-08-18T17:07:23.696Z,5.65
2018-08-18T17:09:58.496Z,7.90
2018-08-18T17:12:34.220Z,4.50
2018-08-18T17:15:09.275Z,4.05
2018-08-18T17:17:43.936Z,4.33
2018-08-18T17:20:18.712Z,3.15
2018-08-18T17:22:53.480Z,1.77
2018-08-18T17:25:30.052Z,1.80
2018-08-18T17:28:04.748Z,1.62
2018-08-18T17:30:40.514Z,5.05
2018-08-18T17:33:15.232Z,4.83
2018-08-18T17:35:50.211Z,1.42
2018-08-18T17:38:24.937Z,2.25
2018-08-18T17:41:00.707Z,2.95
2018-08-18T17:43:35.434Z,4.72
2018-08-18T17:46:11.616Z,3.35
2018-08-18T17:48:51.418Z,4.67
2018-08-18T17:51:26.171Z,3.75
2018-08-18T17:54:00.906Z,4.47
2018-08-18T17:56:35.596Z,2.95
2018-08-18T17:59:10.276Z,3.37
2018-08-18T18:01:57.111Z,5.92
2018-08-18T18:04:31.880Z,3.47
2018-08-18T18:07:07.556Z,6.00
2018-08-18T18:09:43.264Z,2.77
2018-08-18T18:12:23.376Z,2.65
2018-08-18T18:14:59.280Z,2.87
2018-08-18T18:17:35.048Z,4.47
2018-08-18T18:20:09.744Z,2.67
2018-08-18T18:22:49.955Z,2.95
2018-08-18T18:25:25.700Z,4.08
2018-08-18T18:28:02.000Z,3.05
2018-08-18T18:30:36.728Z,3.90
2018-08-18T18:33:12.047Z,5.53
2018-08-18T18:35:47.464Z,5.62
2018-08-18T18:38:23.163Z,3.15
2018-08-18T18:40:58.904Z,3.98
2018-08-18T18:43:33.695Z,6.15
2018-08-18T18:46:09.477Z,8.78
2018-08-18T18:48:44.411Z,5.00
2018-08-18T18:51:19.164Z,7.47
2018-08-18T18:53:56.046Z,6.00
2018-08-18T18:56:30.867Z,3.58
2018-08-18T18:59:06.599Z,5.30
2018-08-18T19:01:44.540Z,2.15
2018-08-18T19:04:19.292Z,7.20
2018-08-18T19:07:04.986Z,5.97
2018-08-18T19:09:39.715Z,4.35
2018-08-18T19:12:14.495Z,3.22
2018-08-18T19:14:49.165Z,1.60
2018-08-18T19:17:24.896Z,3.05
2018-08-18T19:20:12.621Z,4.37
2018-08-18T19:22:47.401Z,5.72
2018-08-18T19:25:22.071Z,2.55
2018-08-18T19:27:56.830Z,3.30
2018-08-18T19:30:33.471Z,4.42
2018-08-18T19:33:10.068Z,1.65
2018-08-18T19:35:46.703Z,4.00
2018-08-18T19:38:23.601Z,2.35
2018-08-18T19:40:58.303Z,5.30
2018-08-18T19:43:33.040Z,4.00
2018-08-18T19:46:07.734Z,4.72
2018-08-18T19:48:43.580Z,3.60
2018-08-18T19:51:18.279Z,6.42
2018-08-18T19:53:52.985Z,4.58
2018-08-18T19:56:27.707Z,3.70
2018-08-18T19:59:03.476Z,6.80
2018-08-18T20:01:38.170Z,6.58
2018-08-18T20:04:13.775Z,6.92
2018-08-18T20:06:49.472Z,5.53
2018-08-18T20:09:24.235Z,5.53
2018-08-18T20:11:59.072Z,6.17
2018-08-18T20:14:33.824Z,4.87
2018-08-18T20:17:09.628Z,3.98
2018-08-18T20:19:44.332Z,3.70
2018-08-18T20:22:19.011Z,2.12
2018-08-18T20:24:53.751Z,2.85
2018-08-18T20:27:28.468Z,6.78
2018-08-18T20:30:03.296Z,7.12
2018-08-18T20:32:38.327Z,5.62
2018-08-18T20:35:13.143Z,6.22
2018-08-18T20:37:50.340Z,4.83
2018-08-18T20:43:10.357Z,3.05
2018-08-18T20:45:48.722Z,2.67
2018-08-18T20:48:24.630Z,3.87
2018-08-18T20:51:01.295Z,4.92
2018-08-18T20:53:36.046Z,4.30
2018-08-18T20:56:11.072Z,3.52
2018-08-18T20:58:46.776Z,3.83
2018-08-18T21:01:21.509Z,3.05
2018-08-18T21:03:56.166Z,3.47
2018-08-18T21:06:30.912Z,5.62
2018-08-18T21:09:37.542Z,4.22
2018-08-18T21:12:12.289Z,3.45
2018-08-18T21:14:48.155Z,5.22
2018-08-18T21:17:22.852Z,3.77
2018-08-18T21:19:58.635Z,3.35
2018-08-18T21:22:33.334Z,4.35
2018-08-18T21:25:09.350Z,3.35
2018-08-18T21:27:44.099Z,4.58
2018-08-18T21:30:18.948Z,4.92
2018-08-18T21:32:56.892Z,9.13
2018-08-18T21:35:31.662Z,4.60
2018-08-18T21:38:06.725Z,5.60
2018-08-18T21:43:34.972Z,7.50
2018-08-18T21:46:09.732Z,6.37
2018-08-18T21:48:48.946Z,5.12
2018-08-18T21:51:26.878Z,4.20
2018-08-18T21:54:01.678Z,5.95
2018-08-18T21:56:43.819Z,2.67
2018-08-18T21:59:18.577Z,4.87
2018-08-18T22:01:57.435Z,3.45
2018-08-18T22:04:32.154Z,4.83
2018-08-18T22:07:06.916Z,4.08
2018-08-18T22:09:41.622Z,5.45
2018-08-18T22:12:16.425Z,6.50
2018-08-18T22:14:51.120Z,6.35
2018-08-18T22:17:25.851Z,4.12
2018-08-18T22:20:00.620Z,3.45
2018-08-18T22:22:35.484Z,7.47
2018-08-18T22:25:10.249Z,4.80
2018-08-18T22:27:45.590Z,6.60
2018-08-18T22:30:20.416Z,6.55
2018-08-18T22:32:55.197Z,7.83
2018-08-18T22:35:29.952Z,3.95
2018-08-18T22:38:04.715Z,3.12
2018-08-18T22:40:40.467Z,3.37
2018-08-18T22:43:15.308Z,5.17
2018-08-18T22:45:50.047Z,3.15
2018-08-18T22:48:24.768Z,4.97
2018-08-18T22:51:00.834Z,5.85
2018-08-18T22:53:35.563Z,5.95
2018-08-18T22:56:11.307Z,4.00
2018-08-18T22:58:53.379Z,4.67
2018-08-18T23:01:28.246Z,6.45
2018-08-18T23:04:03.863Z,6.08
2018-08-18T23:06:38.612Z,4.97
2018-08-18T23:09:13.301Z,4.15
2018-08-18T23:11:49.068Z,4.58
2018-08-18T23:14:24.860Z,8.95
2018-08-18T23:17:00.137Z,5.08
2018-08-18T23:19:34.854Z,3.50
2018-08-18T23:22:20.405Z,4.17
2018-08-18T23:24:55.088Z,5.05
2018-08-18T23:27:29.820Z,5.80
2018-08-18T23:30:05.764Z,6.08
2018-08-18T23:32:40.488Z,5.75
2018-08-18T23:35:15.241Z,4.78
2018-08-18T23:37:49.956Z,5.28
2018-08-18T23:40:24.735Z,5.40
2018-08-18T23:42:59.604Z,5.67
2018-08-18T23:45:41.007Z,5.22
2018-08-18T23:48:15.721Z,4.85
2018-08-18T23:50:50.468Z,6.15
2018-08-18T23:53:26.264Z,5.22
2018-08-18T23:56:02.021Z,11.68
2018-08-18T23:58:37.772Z,5.03
